createdAt,value
2019-01-24T00:00:56.999Z,67.77
2019-01-24T00:03:23.657Z,63.27
2019-01-24T00:05:50.295Z,63.73
2019-01-24T00:08:16.935Z,67.40
2019-01-24T00:10:43.540Z,60.73
2019-01-24T00:13:10.169Z,67.90
2019-01-24T00:15:36.876Z,65.67
2019-01-24T00:18:03.615Z,59.60
2019-01-24T00:20:30.249Z,50.73
2019-01-24T00:22:57.010Z,57.57
2019-01-24T00:25:23.490Z,70.30
2019-01-24T00:27:50.158Z,65.87
2019-01-24T00:30:16.763Z,65.17
2019-01-24T00:32:43.482Z,61.03
2019-01-24T00:35:10.136Z,70.13
2019-01-24T00:37:36.983Z,60.50
2019-01-24T00:40:16.074Z,67.00
2019-01-24T00:42:42.763Z,50.97
2019-01-24T00:45:09.541Z,55.30
2019-01-24T00:47:36.197Z,65.53
2019-01-24T00:50:05.719Z,53.00
2019-01-24T00:52:32.350Z,55.07
2019-01-24T00:54:58.908Z,56.73
2019-01-24T00:57:25.461Z,60.33
2019-01-24T00:59:52.114Z,60.67
2019-01-24T01:02:18.703Z,57.33
2019-01-24T01:04:45.257Z,52.43
2019-01-24T01:07:11.892Z,57.83
2019-01-24T01:09:38.563Z,59.13
2019-01-24T01:12:05.857Z,64.97
2019-01-24T01:14:32.415Z,59.60
2019-01-24T01:16:59.110Z,57.30
2019-01-24T01:19:25.624Z,54.77
2019-01-24T01:21:52.316Z,54.30
2019-01-24T01:24:18.931Z,50.80
2019-01-24T01:26:45.564Z,62.13
2019-01-24T01:29:12.188Z,60.17
2019-01-24T01:31:38.733Z,60.00
2019-01-24T01:34:05.343Z,57.53
2019-01-24T01:36:32.050Z,50.90
2019-01-24T01:38:58.626Z,64.30
2019-01-24T01:41:25.219Z,49.17
2019-01-24T01:43:51.669Z,53.43
2019-01-24T01:46:18.154Z,62.87
2019-01-24T01:48:44.716Z,60.77
2019-01-24T01:51:11.327Z,49.93
2019-01-24T01:53:38.970Z,65.50
2019-01-24T01:56:05.633Z,55.83
2019-01-24T01:58:32.225Z,46.27
2019-01-24T02:00:58.895Z,50.83
2019-01-24T02:03:25.441Z,57.63
2019-01-24T02:05:52.138Z,55.40
2019-01-24T02:08:18.721Z,55.43
2019-01-24T02:10:45.279Z,59.13
2019-01-24T02:13:11.698Z,46.50
2019-01-24T02:15:38.344Z,45.60
2019-01-24T02:18:05.120Z,43.40
2019-01-24T02:20:31.727Z,69.20
2019-01-24T02:22:58.314Z,51.03
2019-01-24T02:25:24.905Z,70.63
2019-01-24T02:27:51.567Z,62.27
2019-01-24T02:30:20.674Z,62.50
2019-01-24T02:32:47.230Z,73.93
2019-01-24T02:35:13.932Z,53.27
2019-01-24T02:37:40.548Z,56.60
2019-01-24T02:40:08.667Z,59.40
2019-01-24T02:42:35.428Z,54.83
2019-01-24T02:45:02.915Z,54.07
2019-01-24T02:47:29.512Z,57.93
2019-01-24T02:49:55.983Z,64.47
2019-01-24T02:52:22.576Z,54.30
2019-01-24T02:54:49.268Z,52.93
2019-01-24T02:57:15.740Z,59.80
2019-01-24T02:59:42.318Z,62.10
2019-01-24T03:02:08.960Z,65.10
2019-01-24T03:04:35.340Z,62.67
2019-01-24T03:07:01.942Z,60.97
2019-01-24T03:09:28.536Z,57.77
2019-01-24T03:11:55.088Z,71.57
2019-01-24T03:14:21.794Z,64.20
2019-01-24T03:16:48.381Z,58.70
2019-01-24T03:19:15.066Z,72.00
2019-01-24T03:21:41.607Z,65.50
2019-01-24T03:24:08.206Z,69.00
2019-01-24T03:26:34.776Z,77.20
2019-01-24T03:29:01.535Z,73.93
2019-01-24T03:31:28.070Z,78.00
2019-01-24T03:33:54.531Z,76.43
2019-01-24T03:36:21.079Z,74.00
2019-01-24T03:38:47.711Z,65.03
2019-01-24T03:41:14.405Z,79.83
2019-01-24T03:43:40.982Z,79.33
2019-01-24T03:46:07.583Z,80.57
2019-01-24T03:48:34.177Z,69.13
2019-01-24T03:51:00.809Z,67.40
2019-01-24T03:53:27.412Z,77.83
2019-01-24T03:55:54.131Z,78.63
2019-01-24T03:58:20.799Z,77.13
2019-01-24T04:00:47.349Z,73.33
2019-01-24T04:03:13.935Z,83.80
2019-01-24T04:05:40.458Z,83.73
2019-01-24T04:08:07.077Z,70.27
2019-01-24T04:10:33.759Z,76.33
2019-01-24T04:13:00.136Z,75.47
2019-01-24T04:15:26.735Z,80.93
2019-01-24T04:17:53.339Z,70.50
2019-01-24T04:20:19.960Z,70.97
2019-01-24T04:22:46.565Z,73.87
2019-01-24T04:25:13.229Z,70.53
2019-01-24T04:27:39.662Z,75.40
2019-01-24T04:30:12.232Z,74.67
2019-01-24T04:32:38.667Z,87.73
2019-01-24T04:35:07.564Z,77.93
2019-01-24T04:37:34.115Z,84.67
2019-01-24T04:40:00.812Z,68.20
2019-01-24T04:42:27.394Z,63.53
2019-01-24T04:44:53.932Z,74.03
2019-01-24T04:47:20.468Z,72.20
2019-01-24T04:49:47.114Z,87.67
2019-01-24T04:52:13.674Z,83.70
2019-01-24T04:54:40.223Z,76.37
2019-01-24T04:57:06.938Z,73.67
2019-01-24T04:59:33.383Z,75.53
2019-01-24T05:01:59.968Z,75.47
2019-01-24T05:04:26.535Z,82.53
2019-01-24T05:06:53.073Z,77.07
2019-01-24T05:09:19.690Z,80.13
2019-01-24T05:11:46.136Z,85.57
2019-01-24T05:14:12.662Z,61.60
2019-01-24T05:16:39.197Z,52.07
2019-01-24T05:19:05.916Z,52.60
2019-01-24T05:21:32.393Z,42.80
2019-01-24T05:23:58.926Z,53.93
2019-01-24T05:26:25.496Z,46.77
2019-01-24T05:28:52.321Z,43.70
2019-01-24T05:31:18.866Z,44.03
2019-01-24T05:33:45.429Z,43.57
2019-01-24T05:36:11.874Z,64.27
2019-01-24T05:38:38.368Z,60.13
2019-01-24T05:41:04.964Z,62.80
2019-01-24T05:43:31.690Z,74.43
2019-01-24T05:45:58.163Z,63.37
2019-01-24T05:48:24.751Z,72.23
2019-01-24T05:50:51.383Z,79.07
2019-01-24T05:53:17.937Z,58.73
2019-01-24T05:55:44.656Z,69.53
2019-01-24T05:58:12.447Z,55.00
2019-01-24T06:00:40.781Z,67.63
2019-01-24T06:03:07.919Z,70.13
2019-01-24T06:05:34.439Z,63.73
2019-01-24T06:08:00.942Z,57.43
2019-01-24T06:10:27.624Z,64.53
2019-01-24T06:12:54.236Z,69.17
2019-01-24T06:15:20.948Z,70.10
2019-01-24T06:17:47.543Z,72.43
2019-01-24T06:20:14.277Z,62.17
2019-01-24T06:22:40.922Z,65.17
2019-01-24T06:25:10.131Z,70.60
2019-01-24T06:27:36.562Z,76.37
2019-01-24T06:30:06.850Z,83.53
2019-01-24T06:32:33.221Z,63.30
2019-01-24T06:34:59.834Z,57.27
2019-01-24T06:37:26.410Z,62.90
2019-01-24T06:39:53.098Z,52.77
2019-01-24T06:42:19.665Z,51.57
2019-01-24T06:44:46.219Z,52.13
2019-01-24T06:47:12.786Z,68.43
2019-01-24T06:49:39.458Z,70.13
2019-01-24T06:52:06.009Z,72.03
2019-01-24T06:54:32.497Z,62.70
2019-01-24T06:56:58.977Z,64.17
2019-01-24T06:59:25.556Z,57.57
2019-01-24T07:01:52.092Z,68.77
2019-01-24T07:04:18.818Z,56.17
2019-01-24T07:06:45.354Z,61.03
2019-01-24T07:09:12.045Z,74.87
2019-01-24T07:11:38.594Z,56.37
2019-01-24T07:14:05.173Z,71.80
2019-01-24T07:16:31.758Z,62.83
2019-01-24T07:18:58.362Z,73.83
2019-01-24T07:21:24.924Z,66.00
2019-01-24T07:23:51.516Z,63.63
2019-01-24T07:26:18.116Z,54.60
2019-01-24T07:28:44.636Z,62.37
2019-01-24T07:31:11.285Z,60.87
2019-01-24T07:33:37.973Z,58.87
2019-01-24T07:36:04.587Z,75.07
2019-01-24T07:38:31.140Z,67.97
2019-01-24T07:40:58.797Z,65.20
2019-01-24T07:43:25.368Z,67.73
2019-01-24T07:45:51.948Z,70.03
2019-01-24T07:48:18.444Z,74.67
2019-01-24T07:50:45.123Z,78.93
2019-01-24T07:53:11.709Z,73.10
2019-01-24T07:55:38.430Z,64.70
2019-01-24T07:58:05.117Z,71.23
2019-01-24T08:00:31.688Z,74.03
2019-01-24T08:02:58.384Z,67.17
2019-01-24T08:05:26.949Z,63.33
2019-01-24T08:07:53.533Z,64.97
2019-01-24T08:10:21.641Z,53.93
2019-01-24T08:12:48.206Z,57.50
2019-01-24T08:15:19.310Z,49.43
2019-01-24T08:17:46.001Z,67.00
2019-01-24T08:20:14.993Z,55.90
2019-01-24T08:22:41.682Z,67.97
2019-01-24T08:25:09.499Z,63.97
2019-01-24T08:27:36.073Z,66.33
2019-01-24T08:30:06.353Z,60.70
2019-01-24T08:32:32.927Z,51.77
2019-01-24T08:34:59.512Z,55.03
2019-01-24T08:37:26.252Z,49.07
2019-01-24T08:39:52.722Z,49.70
2019-01-24T08:42:19.344Z,43.07
2019-01-24T08:44:45.936Z,50.17
2019-01-24T08:47:12.565Z,71.30
2019-01-24T08:49:39.179Z,58.93
2019-01-24T08:52:05.742Z,55.47
2019-01-24T08:54:32.308Z,58.57
2019-01-24T08:56:58.886Z,49.13
2019-01-24T08:59:29.510Z,57.33
2019-01-24T09:01:53.719Z,58.57
2019-01-24T09:04:20.300Z,53.53
2019-01-24T09:06:46.904Z,50.37
2019-01-24T09:09:13.463Z,48.17
2019-01-24T09:11:40.037Z,43.90
2019-01-24T09:14:06.725Z,43.40
2019-01-24T09:16:33.179Z,43.53
2019-01-24T09:18:59.738Z,48.20
2019-01-24T09:21:26.209Z,52.83
2019-01-24T09:23:52.802Z,41.17
2019-01-24T09:26:19.418Z,46.37
2019-01-24T09:28:46.056Z,50.87
2019-01-24T09:31:12.741Z,46.37
2019-01-24T09:33:39.323Z,55.40
2019-01-24T09:36:05.938Z,52.70
2019-01-24T09:38:32.275Z,43.43
2019-01-24T09:40:58.776Z,43.87
2019-01-24T09:43:25.352Z,43.07
2019-01-24T09:45:51.903Z,43.87
2019-01-24T09:48:18.499Z,47.13
2019-01-24T09:50:45.065Z,44.10
2019-01-24T09:53:11.628Z,42.30
2019-01-24T09:55:38.264Z,41.27
2019-01-24T09:58:04.878Z,39.43
2019-01-24T10:00:32.931Z,51.40
2019-01-24T10:02:59.517Z,49.87
2019-01-24T10:05:26.116Z,48.60
2019-01-24T10:07:52.974Z,49.07
2019-01-24T10:10:21.477Z,42.70
2019-01-24T10:12:48.164Z,44.40
2019-01-24T10:15:16.393Z,49.10
2019-01-24T10:17:42.966Z,42.30
2019-01-24T10:20:11.768Z,45.40
2019-01-24T10:22:38.406Z,44.00
2019-01-24T10:25:11.185Z,37.70
2019-01-24T10:27:37.803Z,38.87
2019-01-24T10:30:07.950Z,55.70
2019-01-24T10:32:34.691Z,53.87
2019-01-24T10:35:01.385Z,52.63
2019-01-24T10:37:27.964Z,56.07
2019-01-24T10:39:54.694Z,51.07
2019-01-24T10:42:21.316Z,43.50
2019-01-24T10:44:47.844Z,46.57
2019-01-24T10:47:14.573Z,49.03
2019-01-24T10:49:41.091Z,47.53
2019-01-24T10:52:07.652Z,50.27
2019-01-24T10:54:34.248Z,50.50
2019-01-24T10:57:00.862Z,46.33
2019-01-24T10:59:27.418Z,43.33
2019-01-24T11:01:54.084Z,47.73
2019-01-24T11:04:20.566Z,40.80
2019-01-24T11:06:50.096Z,43.30
2019-01-24T11:09:15.736Z,40.90
2019-01-24T11:11:42.508Z,51.67
2019-01-24T11:14:09.200Z,53.60
2019-01-24T11:16:35.788Z,50.93
2019-01-24T11:19:02.604Z,44.77
2019-01-24T11:21:29.192Z,50.47
2019-01-24T11:23:55.743Z,46.40
2019-01-24T11:26:22.345Z,42.13
2019-01-24T11:28:48.861Z,42.30
2019-01-24T11:31:15.411Z,54.20
2019-01-24T11:33:41.963Z,52.67
2019-01-24T11:36:08.540Z,50.87
2019-01-24T11:38:35.108Z,52.20
2019-01-24T11:41:01.847Z,50.80
2019-01-24T11:43:28.380Z,49.20
2019-01-24T11:45:55.018Z,49.33
2019-01-24T11:48:21.619Z,46.73
2019-01-24T11:50:48.207Z,52.00
2019-01-24T11:53:14.797Z,51.17
2019-01-24T11:55:41.363Z,51.57
2019-01-24T11:58:07.926Z,56.90
2019-01-24T12:00:38.377Z,54.57
2019-01-24T12:03:05.461Z,54.50
2019-01-24T12:05:32.038Z,47.97
2019-01-24T12:07:58.678Z,47.53
2019-01-24T12:10:26.741Z,50.90
2019-01-24T12:12:53.429Z,52.43
2019-01-24T12:15:21.881Z,45.13
2019-01-24T12:17:48.593Z,38.93
2019-01-24T12:20:19.957Z,42.13
2019-01-24T12:22:46.637Z,46.37
2019-01-24T12:25:13.368Z,52.30
2019-01-24T12:27:39.924Z,52.00
2019-01-24T12:30:12.870Z,53.53
2019-01-24T12:32:39.508Z,61.43
2019-01-24T12:35:07.775Z,56.23
2019-01-24T12:37:34.432Z,49.47
2019-01-24T12:40:01.066Z,51.80
2019-01-24T12:42:27.640Z,55.73
2019-01-24T12:44:54.292Z,51.83
2019-01-24T12:47:20.854Z,51.07
2019-01-24T12:49:47.268Z,49.93
2019-01-24T12:52:13.799Z,44.17
2019-01-24T12:54:40.391Z,50.17
2019-01-24T12:57:06.924Z,43.30
2019-01-24T12:59:33.391Z,54.83
2019-01-24T13:01:59.854Z,49.73
2019-01-24T13:04:26.331Z,44.40
2019-01-24T13:06:52.909Z,44.20
2019-01-24T13:09:19.376Z,44.37
2019-01-24T13:11:45.942Z,56.90
2019-01-24T13:14:12.510Z,51.17
2019-01-24T13:16:39.078Z,56.67
2019-01-24T13:19:05.600Z,46.20
2019-01-24T13:21:32.242Z,49.63
2019-01-24T13:23:58.811Z,58.50
2019-01-24T13:26:25.289Z,57.87
2019-01-24T13:28:51.907Z,61.67
2019-01-24T13:31:18.528Z,54.20
2019-01-24T13:33:45.328Z,50.10
2019-01-24T13:36:11.897Z,52.90
2019-01-24T13:38:38.635Z,55.83
2019-01-24T13:41:05.203Z,49.77
2019-01-24T13:43:31.562Z,51.07
2019-01-24T13:45:58.156Z,61.50
2019-01-24T13:48:24.744Z,55.33
2019-01-24T13:50:51.290Z,60.10
2019-01-24T13:53:17.777Z,51.83
2019-01-24T13:55:44.387Z,49.00
2019-01-24T13:58:11.023Z,55.37
2019-01-24T14:00:37.625Z,52.20
2019-01-24T14:03:16.529Z,52.87
2019-01-24T14:05:43.259Z,55.03
2019-01-24T14:08:09.803Z,62.93
2019-01-24T14:10:37.445Z,64.10
2019-01-24T14:13:04.140Z,56.57
2019-01-24T14:15:30.666Z,59.30
2019-01-24T14:17:57.255Z,60.17
2019-01-24T14:20:23.946Z,55.27
2019-01-24T14:22:50.628Z,54.87
2019-01-24T14:25:18.568Z,48.93
2019-01-24T14:27:45.181Z,60.03
2019-01-24T14:30:18.512Z,56.20
2019-01-24T14:32:45.125Z,58.40
2019-01-24T14:35:11.798Z,57.57
2019-01-24T14:37:39.876Z,62.77
2019-01-24T14:40:09.669Z,61.20
2019-01-24T14:42:36.090Z,59.23
2019-01-24T14:45:06.292Z,63.53
2019-01-24T14:47:32.778Z,61.50
2019-01-24T14:49:59.391Z,58.37
2019-01-24T14:52:26.393Z,63.30
2019-01-24T14:54:54.964Z,62.10
2019-01-24T14:57:21.565Z,58.90
2019-01-24T14:59:48.176Z,55.87
2019-01-24T15:02:14.691Z,53.13
2019-01-24T15:04:41.209Z,54.10
2019-01-24T15:07:07.673Z,49.37
2019-01-24T15:09:34.262Z,44.37
2019-01-24T15:12:00.758Z,49.63
2019-01-24T15:14:27.335Z,55.80
2019-01-24T15:16:53.754Z,45.93
2019-01-24T15:19:20.302Z,49.00
2019-01-24T15:21:47.004Z,61.33
2019-01-24T15:24:13.589Z,48.60
2019-01-24T15:26:40.152Z,54.37
2019-01-24T15:29:06.757Z,51.43
2019-01-24T15:31:33.342Z,61.43
2019-01-24T15:33:59.745Z,62.33
2019-01-24T15:36:26.522Z,59.53
2019-01-24T15:38:53.141Z,57.60
2019-01-24T15:41:19.684Z,50.67
2019-01-24T15:43:46.410Z,52.13
2019-01-24T15:46:13.028Z,49.77
2019-01-24T15:48:42.713Z,62.43
2019-01-24T15:51:07.877Z,46.77
2019-01-24T15:53:34.490Z,53.10
2019-01-24T15:56:01.080Z,48.47
2019-01-24T15:58:30.734Z,48.30
2019-01-24T16:00:57.333Z,57.93
2019-01-24T16:03:23.799Z,50.00
2019-01-24T16:05:50.410Z,59.20
2019-01-24T16:08:16.953Z,60.03
2019-01-24T16:10:43.669Z,57.30
2019-01-24T16:13:10.254Z,57.47
2019-01-24T16:15:36.975Z,51.07
2019-01-24T16:18:06.836Z,63.20
2019-01-24T16:20:33.517Z,60.37
2019-01-24T16:23:00.097Z,51.50
2019-01-24T16:25:29.080Z,50.80
2019-01-24T16:27:55.690Z,54.37
2019-01-24T16:30:25.299Z,50.17
2019-01-24T16:32:51.869Z,48.73
2019-01-24T16:35:19.214Z,52.13
2019-01-24T16:37:45.876Z,51.40
2019-01-24T16:40:15.523Z,54.10
2019-01-24T16:42:44.269Z,70.17
2019-01-24T16:45:13.835Z,50.60
2019-01-24T16:47:40.274Z,55.30
2019-01-24T16:50:09.391Z,49.57
2019-01-24T16:52:35.834Z,41.27
2019-01-24T16:55:03.408Z,43.37
2019-01-24T16:57:30.116Z,44.23
2019-01-24T16:59:56.672Z,41.47
2019-01-24T17:02:23.410Z,37.07
2019-01-24T17:04:50.000Z,34.60
2019-01-24T17:07:16.481Z,28.97
2019-01-24T17:09:43.095Z,30.07
2019-01-24T17:12:09.612Z,28.03
2019-01-24T17:14:36.376Z,28.70
2019-01-24T17:17:03.027Z,26.50
2019-01-24T17:19:29.577Z,38.33
2019-01-24T17:21:56.410Z,44.53
2019-01-24T17:24:23.036Z,48.40
2019-01-24T17:26:49.633Z,57.97
2019-01-24T17:29:16.139Z,54.50
2019-01-24T17:31:42.919Z,53.53
2019-01-24T17:34:09.627Z,82.77
2019-01-24T17:36:36.371Z,63.97
2019-01-24T17:39:06.064Z,59.00
2019-01-24T17:41:32.597Z,58.47
2019-01-24T17:43:59.312Z,56.63
2019-01-24T17:46:25.933Z,65.73
2019-01-24T17:48:52.438Z,62.27
2019-01-24T17:51:19.007Z,58.23
2019-01-24T17:53:45.482Z,63.33
2019-01-24T17:56:12.136Z,54.83
2019-01-24T17:58:38.887Z,51.83
2019-01-24T18:01:05.596Z,63.33
2019-01-24T18:03:32.140Z,62.97
2019-01-24T18:05:59.116Z,61.17
2019-01-24T18:08:31.180Z,47.37
2019-01-24T18:10:54.108Z,39.90
2019-01-24T18:13:20.774Z,38.80
2019-01-24T18:15:48.686Z,37.70
2019-01-24T18:18:15.475Z,45.03
2019-01-24T18:20:42.126Z,37.73
2019-01-24T18:23:09.064Z,36.13
2019-01-24T18:25:35.941Z,34.13
2019-01-24T18:28:04.092Z,33.03
2019-01-24T18:30:30.768Z,37.23
2019-01-24T18:32:57.469Z,33.93
2019-01-24T18:35:25.215Z,29.47
2019-01-24T18:37:51.884Z,32.60
2019-01-24T18:40:24.331Z,33.23
2019-01-24T18:42:51.494Z,32.63
2019-01-24T18:45:24.409Z,37.97
2019-01-24T18:47:51.196Z,35.60
2019-01-24T18:50:19.520Z,31.97
2019-01-24T18:52:47.480Z,28.63
2019-01-24T18:55:14.179Z,27.20
2019-01-24T18:57:40.784Z,27.67
2019-01-24T19:00:13.930Z,23.67
2019-01-24T19:02:40.554Z,25.37
2019-01-24T19:05:09.675Z,23.80
2019-01-24T19:07:36.475Z,35.33
2019-01-24T19:10:06.073Z,28.50
2019-01-24T19:12:32.664Z,24.70
2019-01-24T19:14:59.262Z,30.03
2019-01-24T19:17:25.915Z,24.40
2019-01-24T19:19:52.715Z,27.77
2019-01-24T19:22:19.393Z,24.67
2019-01-24T19:24:46.050Z,24.53
2019-01-24T19:27:12.676Z,24.33
2019-01-24T19:29:39.416Z,27.10
2019-01-24T19:32:05.907Z,27.47
2019-01-24T19:34:32.790Z,33.03
2019-01-24T19:36:59.404Z,32.37
2019-01-24T19:39:26.027Z,32.30
2019-01-24T19:41:52.767Z,35.30
2019-01-24T19:44:19.454Z,30.07
2019-01-24T19:46:46.283Z,41.87
2019-01-24T19:49:12.989Z,30.10
2019-01-24T19:51:39.533Z,25.53
2019-01-24T19:54:06.268Z,27.57
2019-01-24T19:56:32.710Z,27.93
2019-01-24T19:59:00.498Z,26.23
2019-01-24T20:01:26.943Z,28.53
2019-01-24T20:03:53.664Z,29.23
2019-01-24T20:06:20.115Z,29.27
2019-01-24T20:08:47.671Z,29.17
2019-01-24T20:11:17.629Z,32.60
2019-01-24T20:13:44.133Z,34.97
2019-01-24T20:16:10.922Z,48.87
2019-01-24T20:18:37.565Z,45.87
2019-01-24T20:21:04.642Z,47.93
2019-01-24T20:23:31.383Z,42.93
2019-01-24T20:25:58.024Z,39.30
2019-01-24T20:28:24.587Z,33.83
2019-01-24T20:30:52.333Z,28.93
2019-01-24T20:33:19.058Z,29.60
2019-01-24T20:35:51.330Z,32.97
2019-01-24T20:38:17.906Z,32.37
2019-01-24T20:40:44.594Z,28.97
2019-01-24T20:43:12.571Z,28.63
2019-01-24T20:45:39.200Z,29.37
2019-01-24T20:48:05.788Z,31.10
2019-01-24T20:50:32.379Z,42.70
2019-01-24T20:52:58.986Z,46.77
2019-01-24T20:55:25.692Z,52.37
2019-01-24T20:57:52.368Z,52.73
2019-01-24T21:00:23.123Z,45.00
2019-01-24T21:02:50.272Z,41.30
2019-01-24T21:05:18.766Z,36.87
2019-01-24T21:07:45.421Z,35.93
2019-01-24T21:10:15.664Z,52.33
2019-01-24T21:12:42.233Z,39.20
2019-01-24T21:15:11.590Z,34.73
2019-01-24T21:17:38.029Z,45.57
2019-01-24T21:20:10.748Z,33.33
2019-01-24T21:22:37.369Z,33.30
2019-01-24T21:25:07.404Z,34.93
2019-01-24T21:27:34.081Z,29.77
2019-01-24T21:30:01.716Z,33.73
2019-01-24T21:32:28.334Z,27.83
2019-01-24T21:34:55.011Z,28.37
2019-01-24T21:37:21.360Z,28.47
2019-01-24T21:39:48.953Z,27.40
2019-01-24T21:42:15.687Z,25.60
2019-01-24T21:44:43.426Z,22.03
2019-01-24T21:47:10.026Z,32.00
2019-01-24T21:49:36.827Z,28.57
2019-01-24T21:52:03.517Z,31.47
2019-01-24T21:54:30.175Z,30.90
2019-01-24T21:56:56.952Z,29.73
2019-01-24T21:59:23.648Z,28.30
2019-01-24T22:01:50.136Z,40.37
2019-01-24T22:04:16.915Z,33.27
2019-01-24T22:06:43.372Z,32.90
2019-01-24T22:09:10.140Z,29.80
2019-01-24T22:11:36.616Z,37.23
2019-01-24T22:14:03.509Z,40.10
2019-01-24T22:16:30.088Z,35.07
2019-01-24T22:18:56.715Z,32.50
2019-01-24T22:21:23.261Z,32.27
2019-01-24T22:23:49.929Z,32.43
2019-01-24T22:26:16.634Z,42.73
2019-01-24T22:28:43.461Z,45.60
2019-01-24T22:31:10.203Z,42.80
2019-01-24T22:33:36.762Z,41.00
2019-01-24T22:36:03.303Z,38.77
2019-01-24T22:38:29.960Z,32.80
2019-01-24T22:40:56.565Z,36.80
2019-01-24T22:43:23.169Z,27.97
2019-01-24T22:45:49.760Z,25.53
2019-01-24T22:48:16.401Z,29.23
2019-01-24T22:50:42.944Z,26.70
2019-01-24T22:53:09.725Z,27.57
2019-01-24T22:55:36.479Z,24.33
2019-01-24T22:58:03.334Z,22.53
2019-01-24T23:00:47.275Z,19.03
2019-01-24T23:03:19.595Z,22.67
2019-01-24T23:05:46.145Z,31.37
2019-01-24T23:08:12.741Z,27.30
2019-01-24T23:10:39.467Z,26.70
2019-01-24T23:13:06.110Z,30.53
2019-01-24T23:15:32.824Z,41.83
2019-01-24T23:17:59.533Z,40.00
2019-01-24T23:20:26.148Z,50.90
2019-01-24T23:22:52.652Z,52.00
2019-01-24T23:25:19.281Z,39.20
2019-01-24T23:27:45.864Z,40.47
2019-01-24T23:30:12.483Z,33.27
2019-01-24T23:32:39.282Z,32.37
2019-01-24T23:35:06.140Z,28.93
2019-01-24T23:37:32.818Z,28.40
2019-01-24T23:39:59.441Z,32.80
2019-01-24T23:42:26.134Z,26.80
2019-01-24T23:44:52.626Z,27.00
2019-01-24T23:47:19.232Z,25.27
2019-01-24T23:49:45.851Z,28.30
2019-01-24T23:52:12.548Z,30.53
2019-01-24T23:54:39.023Z,31.50
2019-01-24T23:57:05.663Z,28.87
2019-01-24T23:59:32.186Z,29.77
